CheckWX is a tool to help pilots better visualize weather data.  It is not intended as a substitute for an official pre-flight weather briefing.

14:05:48 UTC

KOGB METAR
Orangeburg Municipal Airport
Orangeburg, South Carolina, USA
Current

13 mins ago

KOGB 261353Z AUTO 26016G23KT 10SM FEW028 23/14 A2973 RMK AO2 PK WND 24028/1336 SLP066 T02280144
Observed
Apr-26 @ 13:53 UTC
Wind
  • 260° at 16 KTS
  • Gusting to 23 KTS
Visibility
10 SM
Flight Rules
VFR
Cloud Levels
  • Few at 2,800' AGL
Temperature
23°C / 73°F
Dewpoint
14°C / 57°F
Humidity
57%
Altimeter
29.73" Hg
Pressure
1006.82 hPa
Previous

27 mins ago

KOGB 261339Z AUTO 25017G28KT 10SM BKN028 23/15 A2974 RMK AO2 PK WND 24028/1336 T02280150
Observed
Apr-26 @ 13:39 UTC
Wind
  • 250° at 17 KTS
  • Gusting to 28 KTS
Visibility
10 SM
Flight Rules
MVFR
Cloud Levels
  • Broken at 2,800' AGL
Temperature
23°C / 73°F
Dewpoint
15°C / 59°F
Humidity
61%
Altimeter
29.74" Hg
Pressure
1007.12 hPa
Previous

1 hour ago

KOGB 261253Z AUTO 23011KT 10SM FEW110 22/16 A2975 RMK AO2 SLP073 T02170161
Observed
Apr-26 @ 12:53 UTC
Wind
  • 230° at 11 KTS
Visibility
10 SM
Flight Rules
VFR
Cloud Levels
  • Few at 11,000' AGL
Temperature
22°C / 72°F
Dewpoint
16°C / 61°F
Humidity
69%
Altimeter
29.75" Hg
Pressure
1007.42 hPa